Terminal Aerodrome Forecast
Issued by NWS

Home | Current Version | Previous Version | Text Only | Print | Product List | Glossary On
Versions: 1 2 3 4 5 6 7 8 9 10 11 12 13 14 15 16 17 18 19 20 21 22 23 24 25 26 27 28 29 30 31 32
000
FTUS43 KDMX 271741
TAFOTM
TAF
KOTM 271741Z 2718/2818 06009KT P6SM BKN015
     FM272100 10006KT P6SM SCT030
     FM280000 12008KT P6SM SCT200
     FM281000 13012KT P6SM BKN150
     FM281400 14014KT P6SM BKN015=

USA.gov is the U.S. government's official web portal to all federal, state and local government web resources and services.